AOT weather

Aosta Airport
Aosta, Valle d'Aosta, Italy

Public forecast

Using degrees Celsius for public forecast. Weather courtesy of forecast.io.

Current aviation weather report (METAR) for Aosta Airport

Retrieved 2019/10/16 08:20 UTC (0 seconds ago):

LIMW 160820Z AUTO VRB02KT 9999 NCD 10/05 Q1019

Closest aviation forecast (TAF) to Aosta Airport

Closest forecast is Turin Airport, 34.4 nm (63.7 km) SSE. Retrieved 2019/10/16 06:00 UTC (2 hours ago):

TAF LIMF 160500Z 1606/1706 VRB05KT 3000 BR BKN005 BECMG 1607/1610 7000 SCT025 TEMPO 1702/1706 3000 BR